Time;durP1;ratioP1;P1;durP2;ratioP2;P2;SDS_P1;SDS_P2;PMS_P1;PMS_P2;Temp;Humidity;BMP_temperature;BMP_pressure;BME280_temperature;BME280_humidity;BME280_pressure;Samples;Min_cycle;Max_cycle;Signal;HPM_P1;HPM_P2
2021/05/19 00:02:03;;;;;;;1.90;1.30;;;8.70;99.90;;;;;;4994559;28;20066;-77
2021/05/19 00:04:29;;;;;;;2.13;1.43;;;8.70;99.90;;;;;;5012159;28;20076;-77
2021/05/19 00:06:55;;;;;;;2.70;1.40;;;8.70;99.90;;;;;;5011933;28;20120;-77
2021/05/19 00:09:20;;;;;;;5.37;1.30;;;8.70;99.90;;;;;;5012451;28;20088;-77
2021/05/19 00:11:46;;;;;;;2.47;1.20;;;8.70;99.90;;;;;;5011887;28;20038;-77
2021/05/19 00:14:15;;;;;;;4.93;1.50;;;8.70;99.90;;;;;;5011416;28;20081;-77
2021/05/19 00:16:42;;;;;;;2.90;1.40;;;8.70;99.90;;;;;;5011467;28;20026;-77
2021/05/19 00:19:07;;;;;;;1.73;1.23;;;8.70;99.90;;;;;;5010387;28;20069;-77
2021/05/19 00:21:33;;;;;;;3.90;1.43;;;8.70;99.90;;;;;;5011640;28;20116;-77
2021/05/19 00:23:59;;;;;;;1.90;1.17;;;8.60;99.90;;;;;;5011577;28;20030;-77
2021/05/19 00:26:25;;;;;;;2.37;1.20;;;8.60;99.90;;;;;;5012844;28;20104;-78
2021/05/19 00:28:55;;;;;;;3.10;1.23;;;8.60;99.90;;;;;;5013818;28;20101;-78
2021/05/19 00:31:23;;;;;;;3.40;1.33;;;8.60;99.90;;;;;;5026105;28;20107;-78
2021/05/19 00:33:49;;;;;;;2.03;1.13;;;8.60;99.90;;;;;;5036052;28;20029;-78
2021/05/19 00:36:14;;;;;;;3.07;1.27;;;8.50;99.90;;;;;;5029321;28;20037;-78
2021/05/19 00:38:40;;;;;;;4.13;1.60;;;8.50;99.90;;;;;;5001418;28;20022;-79
2021/05/19 00:41:10;;;;;;;2.27;1.30;;;8.40;99.90;;;;;;5026203;28;20026;-78
2021/05/19 00:43:36;;;;;;;2.30;1.60;;;8.50;99.90;;;;;;5027063;28;20033;-79
2021/05/19 00:46:02;;;;;;;2.30;1.40;;;8.50;99.90;;;;;;5026483;28;20021;-78
2021/05/19 00:48:28;;;;;;;4.40;1.50;;;8.50;99.90;;;;;;5041556;28;20021;-78
2021/05/19 00:50:53;;;;;;;2.13;1.27;;;8.50;99.90;;;;;;5038138;28;20442;-79
2021/05/19 00:53:19;;;;;;;2.80;1.37;;;8.50;99.90;;;;;;5033385;28;20427;-79
2021/05/19 00:55:45;;;;;;;3.60;1.20;;;8.50;99.90;;;;;;5019631;28;20025;-78
2021/05/19 00:58:13;;;;;;;3.27;1.20;;;8.50;99.90;;;;;;5034050;28;20041;-79
2021/05/19 01:00:39;;;;;;;5.73;1.30;;;8.40;99.90;;;;;;5024155;28;20029;-79
2021/05/19 01:03:05;;;;;;;2.83;1.30;;;8.50;99.90;;;;;;5040049;28;20026;-78
2021/05/19 01:05:39;;;;;;;2.17;1.13;;;8.50;99.90;;;;;;5027702;28;20065;-79
2021/05/19 01:10:51;;;;;;;4.38;1.08;;;8.50;99.90;;;;;;5030592;28;20057;-78
2021/05/19 01:13:17;;;;;;;2.23;1.20;;;8.50;99.90;;;;;;5032207;28;20041;-78
2021/05/19 01:15:44;;;;;;;2.30;1.20;;;8.40;99.90;;;;;;5038204;28;20045;-78
2021/05/19 01:18:09;;;;;;;3.57;1.53;;;8.50;99.90;;;;;;5048651;28;20017;-78
2021/05/19 01:20:36;;;;;;;5.00;1.27;;;8.40;99.90;;;;;;5044200;28;20037;-79
2021/05/19 01:23:03;;;;;;;1.83;1.10;;;8.40;99.90;;;;;;5042843;28;20036;-79
2021/05/19 01:25:29;;;;;;;3.30;1.10;;;8.50;99.90;;;;;;5037885;28;20030;-78
2021/05/19 01:27:58;;;;;;;3.00;1.10;;;8.50;99.90;;;;;;5026138;28;20026;-79
2021/05/19 01:30:24;;;;;;;1.97;1.20;;;8.50;99.90;;;;;;5037630;28;20037;-79
2021/05/19 01:32:50;;;;;;;4.40;1.30;;;8.40;99.90;;;;;;5028301;28;20029;-79
2021/05/19 01:35:16;;;;;;;2.30;1.10;;;8.50;99.90;;;;;;5021920;28;20041;-79
2021/05/19 01:37:44;;;;;;;4.10;1.00;;;8.40;99.90;;;;;;5041211;28;20030;-79
2021/05/19 01:40:13;;;;;;;4.57;1.50;;;8.40;99.90;;;;;;5032412;28;20026;-79
2021/05/19 01:42:39;;;;;;;3.30;1.43;;;8.50;99.90;;;;;;5043566;28;20025;-79
2021/05/19 01:45:07;;;;;;;5.37;1.70;;;8.40;99.90;;;;;;5029235;28;20379;-79
2021/05/19 01:47:42;;;;;;;2.27;1.17;;;8.50;99.90;;;;;;5023563;28;20026;-79
2021/05/19 01:50:12;;;;;;;2.95;1.38;;;8.50;99.90;;;;;;5038725;28;20018;-78
2021/05/19 01:52:40;;;;;;;4.30;1.30;;;8.50;99.90;;;;;;5027207;28;20038;-79
2021/05/19 01:55:06;;;;;;;1.93;1.20;;;8.50;99.90;;;;;;5039646;28;20478;-79
2021/05/19 01:57:33;;;;;;;5.40;1.43;;;8.50;99.90;;;;;;5028987;28;20022;-79
2021/05/19 01:59:59;;;;;;;2.17;1.20;;;8.50;99.90;;;;;;5029242;28;20026;-79
2021/05/19 02:02:26;;;;;;;4.90;1.60;;;8.50;99.90;;;;;;5028407;28;20029;-79
2021/05/19 02:04:53;;;;;;;1.70;1.20;;;8.50;99.90;;;;;;5039629;28;20064;-79
2021/05/19 02:07:19;;;;;;;3.50;2.03;;;8.60;99.90;;;;;;5050282;28;20151;-79
2021/05/19 02:09:44;;;;;;;1.97;1.20;;;8.60;99.90;;;;;;5040763;28;20128;-79
2021/05/19 02:12:10;;;;;;;1.90;1.30;;;8.60;99.90;;;;;;5043264;28;20025;-79
2021/05/19 02:14:36;;;;;;;3.23;1.30;;;8.60;99.90;;;;;;5038146;28;20041;-79
2021/05/19 02:17:02;;;;;;;2.57;1.50;;;8.60;99.90;;;;;;5050951;28;20486;-79
2021/05/19 02:19:27;;;;;;;3.27;1.50;;;8.60;99.90;;;;;;5022661;28;20022;-79
2021/05/19 02:21:53;;;;;;;3.67;1.40;;;8.50;99.90;;;;;;5035453;28;20025;-79
2021/05/19 02:24:19;;;;;;;2.83;1.30;;;8.50;99.90;;;;;;5051954;28;20025;-79
2021/05/19 02:26:45;;;;;;;3.53;1.13;;;8.60;99.90;;;;;;5041530;28;20026;-79
2021/05/19 02:29:12;;;;;;;2.37;1.40;;;8.60;99.90;;;;;;5046303;28;20079;-80
2021/05/19 02:31:38;;;;;;;4.00;1.33;;;8.60;99.90;;;;;;5051469;28;20028;-79
2021/05/19 02:34:04;;;;;;;2.13;1.30;;;8.60;99.90;;;;;;5039233;28;20451;-79
2021/05/19 02:36:30;;;;;;;2.33;1.30;;;8.60;99.90;;;;;;5032037;28;20041;-79
2021/05/19 02:38:56;;;;;;;3.03;1.20;;;8.60;99.90;;;;;;5031803;28;20423;-79
2021/05/19 02:41:23;;;;;;;6.03;1.40;;;8.60;99.90;;;;;;5043013;28;20521;-79
2021/05/19 02:43:50;;;;;;;5.23;2.00;;;8.60;99.90;;;;;;5021695;28;20030;-79
2021/05/19 02:46:15;;;;;;;2.83;1.83;;;8.50;99.90;;;;;;5038957;28;20467;-79
2021/05/19 02:48:41;;;;;;;3.27;1.30;;;8.50;99.90;;;;;;5035624;28;20022;-79
2021/05/19 02:51:08;;;;;;;4.60;1.50;;;8.50;99.90;;;;;;5006550;28;20034;-79
2021/05/19 02:53:34;;;;;;;3.03;1.30;;;8.50;99.90;;;;;;5044935;28;20033;-79
2021/05/19 02:56:03;;;;;;;2.33;1.10;;;8.50;99.90;;;;;;5052197;28;20420;-79
2021/05/19 02:58:28;;;;;;;8.57;1.70;;;8.50;99.90;;;;;;5029335;28;20034;-79
2021/05/19 03:00:54;;;;;;;2.53;1.40;;;8.40;99.90;;;;;;5040506;28;20340;-79
2021/05/19 03:03:19;;;;;;;3.50;1.50;;;8.50;99.90;;;;;;5021241;28;20079;-79
2021/05/19 03:05:45;;;;;;;3.13;1.30;;;8.50;99.90;;;;;;5042469;28;20022;-79
2021/05/19 03:08:10;;;;;;;3.63;1.30;;;8.60;99.90;;;;;;5033756;28;20074;-79
2021/05/19 03:10:36;;;;;;;2.40;1.10;;;8.50;99.90;;;;;;5040333;28;20018;-79
2021/05/19 03:13:03;;;;;;;3.63;1.67;;;8.60;99.90;;;;;;5053349;28;20033;-79
2021/05/19 03:15:29;;;;;;;2.70;1.20;;;8.50;99.90;;;;;;5035917;28;20049;-79
2021/05/19 03:17:55;;;;;;;3.67;1.50;;;8.50;99.90;;;;;;5029169;28;20041;-79
2021/05/19 03:20:20;;;;;;;2.50;1.30;;;8.50;99.90;;;;;;5012697;28;20033;-79
2021/05/19 03:22:46;;;;;;;2.57;1.50;;;8.50;99.90;;;;;;5027286;28;20034;-79
2021/05/19 03:25:12;;;;;;;2.63;1.60;;;8.50;99.90;;;;;;5030269;28;20060;-79
2021/05/19 03:27:38;;;;;;;3.43;1.60;;;8.40;99.90;;;;;;5026050;28;20025;-79
2021/05/19 03:30:07;;;;;;;2.13;1.50;;;8.40;99.90;;;;;;5038149;28;20045;-79
2021/05/19 03:32:33;;;;;;;3.00;1.70;;;8.50;99.90;;;;;;5030904;28;20018;-79
2021/05/19 03:34:58;;;;;;;4.13;1.80;;;8.40;99.90;;;;;;5038954;28;20545;-79
2021/05/19 03:37:24;;;;;;;3.90;1.80;;;8.40;99.90;;;;;;5037337;28;20074;-79
2021/05/19 03:39:50;;;;;;;5.47;2.53;;;8.40;99.90;;;;;;5018482;28;20036;-79
2021/05/19 03:42:15;;;;;;;4.83;2.33;;;8.50;99.90;;;;;;5040369;28;20045;-79
2021/05/19 03:44:41;;;;;;;4.40;2.03;;;8.50;99.90;;;;;;5034300;28;20451;-79
2021/05/19 03:47:07;;;;;;;4.37;2.30;;;8.50;99.90;;;;;;5040681;28;20032;-78
2021/05/19 03:49:37;;;;;;;2.80;1.73;;;8.50;99.90;;;;;;5030311;28;20030;-79
2021/05/19 03:52:03;;;;;;;4.30;2.20;;;8.40;99.90;;;;;;5038796;28;20036;-79
2021/05/19 03:54:31;;;;;;;4.23;2.30;;;8.40;99.90;;;;;;5050630;28;20060;-79
2021/05/19 03:56:57;;;;;;;7.33;2.57;;;8.50;99.90;;;;;;5045063;28;20030;-79
2021/05/19 03:59:22;;;;;;;5.47;2.53;;;8.50;99.90;;;;;;5026685;28;20033;-79
2021/05/19 04:01:48;;;;;;;3.20;2.30;;;8.40;99.90;;;;;;5026618;28;20140;-79
2021/05/19 04:04:13;;;;;;;3.27;2.30;;;8.50;99.90;;;;;;5032755;28;20034;-79
2021/05/19 04:06:39;;;;;;;2.60;2.10;;;8.40;99.90;;;;;;5043791;28;20040;-79
2021/05/19 04:09:06;;;;;;;5.73;2.30;;;8.40;99.90;;;;;;5018555;28;20026;-79
2021/05/19 04:11:32;;;;;;;3.37;1.90;;;8.50;99.90;;;;;;5019141;28;20019;-78
2021/05/19 04:13:58;;;;;;;3.03;2.10;;;8.50;99.90;;;;;;5013015;28;20089;-78
2021/05/19 04:16:23;;;;;;;3.27;2.13;;;8.50;99.90;;;;;;5018368;28;20029;-79
2021/05/19 04:18:49;;;;;;;2.60;1.90;;;8.50;99.90;;;;;;5023841;28;20030;-79
2021/05/19 04:21:14;;;;;;;3.30;2.10;;;8.40;99.90;;;;;;5012677;28;20030;-78
2021/05/19 04:23:40;;;;;;;4.37;2.23;;;8.40;99.90;;;;;;5015684;28;20025;-78
2021/05/19 04:26:08;;;;;;;4.23;2.20;;;8.40;99.90;;;;;;5031204;28;20095;-75
2021/05/19 04:28:33;;;;;;;4.70;2.07;;;8.40;99.90;;;;;;5032853;28;20045;-75
2021/05/19 04:30:59;;;;;;;3.53;2.17;;;8.40;99.90;;;;;;5030637;28;20125;-76
2021/05/19 04:33:24;;;;;;;5.40;2.00;;;8.30;99.90;;;;;;5013617;28;20041;-76
2021/05/19 04:35:50;;;;;;;3.40;2.17;;;8.30;99.90;;;;;;4995925;28;20033;-76
2021/05/19 04:38:16;;;;;;;7.83;3.00;;;8.30;99.90;;;;;;5013774;28;20030;-75
2021/05/19 04:40:42;;;;;;;4.13;2.17;;;8.40;99.90;;;;;;5013532;28;20026;-76
2021/05/19 04:43:08;;;;;;;6.77;2.10;;;8.40;99.90;;;;;;5013725;28;20047;-76
2021/05/19 04:45:35;;;;;;;3.60;2.27;;;8.40;99.90;;;;;;4996150;28;20100;-76
2021/05/19 04:48:01;;;;;;;3.33;2.10;;;8.30;99.90;;;;;;5013699;28;20084;-76
2021/05/19 04:50:26;;;;;;;6.43;2.73;;;8.30;99.90;;;;;;5022123;28;20454;-76
2021/05/19 04:52:52;;;;;;;5.27;2.30;;;8.30;99.90;;;;;;5018186;28;20124;-76
2021/05/19 04:55:17;;;;;;;3.77;2.20;;;8.30;99.90;;;;;;5013449;28;20061;-76
2021/05/19 04:57:43;;;;;;;5.30;2.50;;;8.20;99.90;;;;;;5013159;28;20045;-76
2021/05/19 05:00:10;;;;;;;5.13;2.83;;;8.20;99.90;;;;;;5018266;28;20094;-76
2021/05/19 05:02:37;;;;;;;5.97;2.50;;;8.20;99.90;;;;;;5026601;28;20034;-76
2021/05/19 05:05:04;;;;;;;4.27;2.50;;;8.20;99.90;;;;;;5013518;28;20403;-77
2021/05/19 05:07:29;;;;;;;5.70;2.93;;;8.20;99.90;;;;;;5022509;28;20045;-76
2021/05/19 05:09:56;;;;;;;4.70;2.20;;;8.20;99.90;;;;;;5019293;28;20026;-76
2021/05/19 05:12:22;;;;;;;7.03;3.00;;;8.20;99.90;;;;;;5013167;28;20132;-76
2021/05/19 05:14:49;;;;;;;5.13;2.37;;;8.20;99.90;;;;;;5026331;28;20052;-76
2021/05/19 05:17:14;;;;;;;4.10;2.53;;;8.20;99.90;;;;;;5042437;28;20033;-76
2021/05/19 05:19:40;;;;;;;5.80;2.47;;;8.30;99.90;;;;;;5013226;28;20030;-76
2021/05/19 05:22:05;;;;;;;5.43;3.00;;;8.30;99.90;;;;;;5013155;28;20030;-76
2021/05/19 05:24:31;;;;;;;5.50;2.73;;;8.40;99.90;;;;;;5013166;28;20034;-76
2021/05/19 05:26:57;;;;;;;7.43;2.50;;;8.40;99.90;;;;;;5012962;28;20459;-76
2021/05/19 05:29:22;;;;;;;6.10;3.17;;;8.40;99.90;;;;;;5012927;28;20098;-76
2021/05/19 05:31:48;;;;;;;5.40;2.93;;;8.40;99.90;;;;;;4993166;28;20034;-77
2021/05/19 05:34:14;;;;;;;5.07;3.23;;;8.40;99.90;;;;;;5005615;28;20037;-78
2021/05/19 05:36:39;;;;;;;7.37;3.20;;;8.40;99.90;;;;;;5013553;28;20113;-76
2021/05/19 05:39:05;;;;;;;5.00;3.10;;;8.50;99.90;;;;;;5011633;28;20034;-76
2021/05/19 05:41:31;;;;;;;6.53;3.33;;;8.50;99.90;;;;;;5014759;28;20030;-76
2021/05/19 05:43:56;;;;;;;7.33;3.73;;;8.50;99.90;;;;;;5018702;28;20030;-77
2021/05/19 05:46:22;;;;;;;7.93;3.73;;;8.50;99.90;;;;;;5005562;28;20026;-77
2021/05/19 05:48:47;;;;;;;4.67;3.53;;;8.50;99.90;;;;;;5016297;28;20038;-76
2021/05/19 05:51:13;;;;;;;6.37;3.53;;;8.50;99.90;;;;;;5026565;28;20044;-77
2021/05/19 05:53:38;;;;;;;5.83;3.90;;;8.60;99.90;;;;;;5028173;28;20364;-77
2021/05/19 05:56:04;;;;;;;4.90;3.67;;;8.60;99.90;;;;;;5021593;28;20152;-76
2021/05/19 05:58:30;;;;;;;5.73;3.77;;;8.60;99.90;;;;;;4998718;28;20037;-75
2021/05/19 06:00:55;;;;;;;6.57;3.90;;;8.70;99.90;;;;;;5018529;28;20044;-75
2021/05/19 06:03:21;;;;;;;6.57;4.00;;;8.70;99.90;;;;;;5032622;28;20049;-77
2021/05/19 06:05:47;;;;;;;8.33;4.47;;;8.70;99.90;;;;;;5016624;28;20030;-78
2021/05/19 06:08:13;;;;;;;8.23;5.47;;;8.70;99.90;;;;;;5025563;28;20045;-79
2021/05/19 06:10:39;;;;;;;6.93;4.63;;;8.60;99.90;;;;;;5018928;28;20436;-82
2021/05/19 06:13:04;;;;;;;8.07;4.87;;;8.60;99.90;;;;;;5032343;28;20105;-81
2021/05/19 06:15:30;;;;;;;6.17;4.43;;;8.60;99.90;;;;;;5001226;28;20132;-82
2021/05/19 06:17:58;;;;;;;8.43;4.50;;;8.60;99.90;;;;;;5030293;28;20029;-82
2021/05/19 06:20:23;;;;;;;8.07;4.47;;;8.60;99.90;;;;;;5028522;28;20041;-82
2021/05/19 06:22:49;;;;;;;9.13;4.73;;;8.60;99.90;;;;;;5025178;28;20471;-81
2021/05/19 06:25:16;;;;;;;6.00;4.77;;;8.50;99.90;;;;;;5011779;28;20038;-81
2021/05/19 06:27:42;;;;;;;7.17;4.50;;;8.60;99.90;;;;;;5010587;28;20017;-82
2021/05/19 06:30:08;;;;;;;6.90;4.80;;;8.70;99.90;;;;;;4993093;28;20022;-82
2021/05/19 06:32:33;;;;;;;6.17;4.40;;;8.70;99.90;;;;;;5009532;28;20458;-82
2021/05/19 06:34:59;;;;;;;5.90;4.63;;;8.80;99.90;;;;;;5010649;28;20034;-81
2021/05/19 06:37:25;;;;;;;6.47;5.27;;;8.80;99.90;;;;;;5009998;28;20038;-82
2021/05/19 06:39:50;;;;;;;9.53;5.10;;;8.90;99.90;;;;;;5011069;28;20045;-82
2021/05/19 06:42:19;;;;;;;8.17;5.53;;;9.10;99.90;;;;;;5010019;28;20038;-82
2021/05/19 06:44:45;;;;;;;7.53;5.13;;;9.20;99.90;;;;;;5030293;28;20165;-78
2021/05/19 06:47:11;;;;;;;8.03;5.43;;;9.40;99.90;;;;;;5015716;28;20466;-77
2021/05/19 06:49:38;;;;;;;6.07;4.83;;;9.60;99.90;;;;;;5015992;28;20033;-78
2021/05/19 06:52:04;;;;;;;5.53;4.53;;;9.80;99.90;;;;;;5015717;28;20065;-78
2021/05/19 06:54:29;;;;;;;6.27;4.60;;;10.00;99.90;;;;;;5015202;28;20030;-78
2021/05/19 06:56:55;;;;;;;4.80;4.20;;;10.10;99.90;;;;;;5018357;28;20040;-81
2021/05/19 06:59:22;;;;;;;5.13;4.40;;;10.30;99.90;;;;;;5034915;28;20112;-78
2021/05/19 07:01:47;;;;;;;6.43;4.47;;;10.30;99.90;;;;;;5034587;28;20061;-78
2021/05/19 07:04:14;;;;;;;5.17;4.53;;;10.30;99.90;;;;;;5035134;28;20460;-78
2021/05/19 07:06:40;;;;;;;8.37;5.60;;;10.40;99.90;;;;;;5034967;28;20025;-77
2021/05/19 07:09:06;;;;;;;7.03;4.73;;;10.50;99.90;;;;;;5016945;28;20075;-77
2021/05/19 07:11:33;;;;;;;6.23;4.47;;;10.50;99.90;;;;;;5002509;28;20432;-77
2021/05/19 07:14:03;;;;;;;7.37;4.63;;;10.40;99.90;;;;;;5014786;28;20036;-77
2021/05/19 07:16:33;;;;;;;6.03;4.13;;;10.60;99.90;;;;;;5013472;28;20045;-76
2021/05/19 07:18:59;;;;;;;4.97;4.47;;;10.90;99.90;;;;;;5014835;28;20029;-77
2021/05/19 07:21:26;;;;;;;7.13;4.85;;;10.90;99.90;;;;;;5015087;28;20026;-80
2021/05/19 07:23:52;;;;;;;8.60;4.80;;;10.90;99.90;;;;;;5015336;28;20501;-81
2021/05/19 07:26:21;;;;;;;4.95;4.40;;;11.00;99.90;;;;;;5015084;28;20030;-81
2021/05/19 07:28:46;;;;;;;9.88;4.78;;;11.10;99.90;;;;;;5014505;28;20037;-81
2021/05/19 07:31:12;;;;;;;6.80;4.67;;;11.00;99.90;;;;;;5033503;28;20021;-81
2021/05/19 07:33:37;;;;;;;6.90;4.60;;;11.20;99.90;;;;;;5026162;28;20036;-77
2021/05/19 07:36:03;;;;;;;6.18;4.53;;;11.10;99.90;;;;;;5032031;28;20022;-77
2021/05/19 07:38:29;;;;;;;5.63;4.78;;;11.20;99.90;;;;;;5015470;28;20116;-77
2021/05/19 07:40:54;;;;;;;8.40;5.10;;;11.30;99.90;;;;;;5016876;28;20062;-77
2021/05/19 07:43:20;;;;;;;6.00;5.00;;;11.40;99.90;;;;;;5031526;28;20029;-77
2021/05/19 07:45:46;;;;;;;5.57;4.63;;;11.60;99.90;;;;;;5033250;28;20025;-77
2021/05/19 07:48:11;;;;;;;5.45;4.43;;;11.80;99.90;;;;;;5030160;28;20098;-77
2021/05/19 07:50:38;;;;;;;8.60;5.15;;;11.80;99.90;;;;;;5029137;28;20026;-77
2021/05/19 07:53:05;;;;;;;5.65;5.00;;;12.00;99.90;;;;;;5030866;28;20029;-77
2021/05/19 07:55:42;;;;;;;6.82;4.60;;;12.00;99.90;;;;;;5028301;28;20083;-76
2021/05/19 07:58:21;;;;;;;5.57;4.68;;;12.10;99.90;;;;;;5025289;28;20025;-77
2021/05/19 08:03:41;;;;;;;6.40;4.20;;;11.90;99.90;;;;;;4980473;28;20498;-77
2021/05/19 08:06:07;;;;;;;6.63;4.93;;;11.80;99.90;;;;;;5026809;28;20022;-77
2021/05/19 08:08:33;;;;;;;6.18;5.35;;;11.60;99.90;;;;;;5033462;28;20095;-76
2021/05/19 08:10:58;;;;;;;7.47;5.22;;;11.40;99.90;;;;;;5015912;28;20363;-76
2021/05/19 08:13:24;;;;;;;6.20;4.97;;;11.20;99.90;;;;;;5031562;28;20025;-77
2021/05/19 08:15:50;;;;;;;9.20;5.90;;;11.00;99.90;;;;;;5029811;28;20045;-76
2021/05/19 08:18:17;;;;;;;6.57;5.90;;;10.80;99.90;;;;;;5033421;28;20056;-76
2021/05/19 08:20:43;;;;;;;7.00;6.22;;;10.60;99.90;;;;;;5033391;28;20539;-77
2021/05/19 08:23:08;;;;;;;6.57;5.13;;;10.50;99.90;;;;;;5021384;28;20030;-77
2021/05/19 08:25:34;;;;;;;7.63;5.40;;;10.50;99.90;;;;;;5013275;28;20026;-82
2021/05/19 08:27:59;;;;;;;6.38;5.50;;;10.60;99.90;;;;;;5007735;28;20046;-83
2021/05/19 08:30:25;;;;;;;7.60;5.95;;;10.50;99.90;;;;;;5007342;28;20018;-82
2021/05/19 08:32:52;;;;;;;6.88;5.50;;;10.60;99.90;;;;;;5008876;28;20030;-83
2021/05/19 08:35:18;;;;;;;7.68;6.00;;;10.60;99.90;;;;;;5008210;28;20077;-87
2021/05/19 08:37:43;;;;;;;6.78;5.82;;;10.60;99.90;;;;;;5009796;28;20030;-85
2021/05/19 08:40:09;;;;;;;7.25;5.40;;;10.80;99.90;;;;;;5009534;28;20042;-85
2021/05/19 08:42:38;;;;;;;7.63;6.03;;;11.00;99.90;;;;;;5009285;28;20038;-85
2021/05/19 08:45:07;;;;;;;6.95;5.30;;;11.30;99.90;;;;;;5009396;28;20029;-85
2021/05/19 08:47:33;;;;;;;8.40;5.30;;;11.40;99.90;;;;;;5022582;28;20025;-85
2021/05/19 08:50:00;;;;;;;7.88;5.88;;;11.50;99.90;;;;;;5010629;28;20022;-85
2021/05/19 08:52:25;;;;;;;7.50;5.70;;;11.60;99.90;;;;;;5023270;28;20024;-84
2021/05/19 08:54:54;;;;;;;6.57;5.43;;;11.80;99.90;;;;;;5014143;28;20018;-84
2021/05/19 08:57:20;;;;;;;7.72;5.68;;;11.90;99.90;;;;;;5022246;28;20533;-84
2021/05/19 08:59:45;;;;;;;10.05;6.40;;;12.20;99.90;;;;;;5009864;28;20030;-84
2021/05/19 09:02:13;;;;;;;9.27;5.85;;;12.30;99.90;;;;;;5011501;28;20026;-84
2021/05/19 09:04:40;;;;;;;6.63;5.65;;;12.40;99.90;;;;;;5011741;28;20056;-84
2021/05/19 09:07:07;;;;;;;7.22;5.10;;;12.40;99.90;;;;;;5012199;28;20052;-84
2021/05/19 09:09:35;;;;;;;10.88;5.25;;;12.40;99.90;;;;;;5011469;28;20022;-84
2021/05/19 09:12:06;;;;;;;6.60;5.05;;;12.70;99.90;;;;;;5011794;28;20037;-85
2021/05/19 09:14:34;;;;;;;7.20;5.50;;;12.90;99.90;;;;;;5024623;28;20049;-85
2021/05/19 09:17:23;;;;;;;7.97;5.72;;;13.10;99.90;;;;;;5005553;28;20022;-85
2021/05/19 09:20:00;;;;;;;6.45;4.78;;;13.20;99.90;;;;;;5023577;28;20018;-83
2021/05/19 09:22:31;;;;;;;5.68;4.57;;;13.40;99.90;;;;;;5020275;28;20037;-85
2021/05/19 09:24:58;;;;;;;7.07;4.93;;;13.30;99.90;;;;;;5016420;28;20033;-85
2021/05/19 09:27:23;;;;;;;6.82;4.68;;;13.20;99.90;;;;;;5017256;28;20053;-85
2021/05/19 09:29:52;;;;;;;6.68;5.20;;;13.10;99.90;;;;;;5028137;28;20414;-85
2021/05/19 09:32:19;;;;;;;9.05;6.35;;;12.80;99.90;;;;;;5013896;28;20025;-84
2021/05/19 09:34:52;;;;;;;7.03;4.75;;;12.70;99.90;;;;;;5015115;28;20021;-84
2021/05/19 09:37:19;;;;;;;7.40;5.00;;;12.60;99.90;;;;;;5015747;28;20018;-85
2021/05/19 09:39:53;;;;;;;9.25;4.88;;;12.50;99.90;;;;;;5030239;28;20064;-84
2021/05/19 09:42:21;;;;;;;5.40;4.55;;;12.60;99.90;;;;;;5013937;28;20035;-84
2021/05/19 09:44:48;;;;;;;9.38;5.18;;;12.60;99.90;;;;;;4999285;28;20022;-84
2021/05/19 09:47:41;;;;;;;8.77;4.45;;;12.80;99.90;;;;;;5020117;28;20458;-84
2021/05/19 09:50:09;;;;;;;5.93;4.47;;;12.80;99.90;;;;;;5018112;28;20026;-87
2021/05/19 09:52:35;;;;;;;8.77;4.82;;;12.90;99.90;;;;;;5003578;28;20084;-85
2021/05/19 09:55:05;;;;;;;6.95;4.38;;;12.90;99.90;;;;;;5013621;28;20022;-84
2021/05/19 09:57:44;;;;;;;4.95;3.92;;;13.10;99.90;;;;;;5022330;28;20022;-84
2021/05/19 10:00:14;;;;;;;5.65;4.45;;;13.10;99.90;;;;;;5029744;28;20041;-81
2021/05/19 10:02:41;;;;;;;6.28;4.45;;;13.10;99.90;;;;;;4998483;28;20108;-81
2021/05/19 10:05:47;;;;;;;4.88;4.00;;;12.90;99.90;;;;;;5005907;28;20018;-81
2021/05/19 10:07:58;;;;;;;8.23;3.50;;;12.60;99.90;;;;;;5017030;28;20084;-81
2021/05/19 10:10:25;;;;;;;6.38;3.70;;;12.50;99.90;;;;;;5029745;28;20112;-67
2021/05/19 10:12:51;;;;;;;6.00;4.07;;;12.30;99.90;;;;;;5015519;28;20537;-81
2021/05/19 10:15:27;;;;;;;6.18;4.40;;;12.10;99.90;;;;;;5006609;28;20124;-81
2021/05/19 10:18:01;;;;;;;6.13;4.22;;;11.70;99.90;;;;;;5015435;28;20506;-81
2021/05/19 10:20:29;;;;;;;6.07;3.60;;;11.50;99.90;;;;;;5015846;28;20037;-81
2021/05/19 10:22:55;;;;;;;4.82;3.50;;;11.50;99.90;;;;;;5015840;28;20033;-81
2021/05/19 10:25:34;;;;;;;4.43;3.75;;;11.60;99.90;;;;;;5002864;28;20026;-81
2021/05/19 10:28:02;;;;;;;6.78;3.75;;;11.50;99.90;;;;;;4995895;28;20018;-81
2021/05/19 10:30:50;;;;;;;4.78;2.90;;;11.70;99.90;;;;;;4996292;28;20077;-80
2021/05/19 10:33:39;;;;;;;3.65;2.55;;;12.20;99.90;;;;;;5015523;28;20024;-81
2021/05/19 10:36:23;;;;;;;5.47;2.95;;;12.30;99.90;;;;;;5001515;28;20030;-81
2021/05/19 10:39:09;;;;;;;4.78;3.33;;;12.20;99.90;;;;;;5004425;28;20033;-81
2021/05/19 10:41:47;;;;;;;6.22;2.75;;;12.10;99.90;;;;;;4995986;28;20475;-81
2021/05/19 10:44:19;;;;;;;4.85;2.80;;;12.00;99.90;;;;;;4995796;28;20077;-81
2021/05/19 10:46:49;;;;;;;3.75;2.90;;;11.90;99.90;;;;;;5002520;28;20018;-81
2021/05/19 10:49:19;;;;;;;3.25;2.55;;;12.00;99.90;;;;;;5001706;28;20018;-81
2021/05/19 10:52:03;;;;;;;4.03;3.35;;;12.00;99.90;;;;;;5013652;28;20070;-80
2021/05/19 10:57:38;;;;;;;5.35;3.53;;;11.90;99.90;;;;;;5001871;28;20033;-79
2021/05/19 11:00:22;;;;;;;6.75;4.20;;;11.90;99.90;;;;;;4999130;28;20038;-86
2021/05/19 11:03:04;;;;;;;4.57;3.63;;;11.90;99.90;;;;;;4991773;28;20065;-86
2021/05/19 11:05:34;;;;;;;4.95;3.70;;;12.30;99.90;;;;;;4985896;28;20810;-78
2021/05/19 11:08:06;;;;;;;5.68;3.60;;;12.60;99.90;;;;;;5015090;28;20466;-79
2021/05/19 11:10:32;;;;;;;6.32;4.03;;;13.00;99.90;;;;;;4998209;28;20478;-79
2021/05/19 11:12:58;;;;;;;6.68;4.00;;;13.40;99.90;;;;;;5011573;28;20404;-79
2021/05/19 11:21:00;;;;;;;5.43;4.47;;;14.60;99.90;;;;;;5008271;28;20689;-85
2021/05/19 11:23:26;;;;;;;5.55;3.80;;;15.10;99.90;;;;;;5000326;28;20097;-85
2021/05/19 11:26:12;;;;;;;4.03;3.13;;;15.40;99.90;;;;;;5011160;28;20022;-85
2021/05/19 11:28:39;;;;;;;5.70;4.07;;;15.80;99.90;;;;;;5016843;28;20025;-85
2021/05/19 11:31:12;;;;;;;4.88;3.30;;;15.50;99.90;;;;;;5021070;28;20029;-85
2021/05/19 11:33:55;;;;;;;4.38;3.13;;;15.70;99.90;;;;;;5024068;28;20026;-84
2021/05/19 11:36:47;;;;;;;6.78;2.70;;;15.80;99.90;;;;;;4992256;28;20121;-84
2021/05/19 11:39:34;;;;;;;3.10;2.80;;;16.30;99.90;;;;;;5011778;28;20371;-69
2021/05/19 11:42:19;;;;;;;2.83;2.38;;;16.50;99.90;;;;;;5018986;28;20459;-69
2021/05/19 11:44:50;;;;;;;3.70;2.38;;;16.30;99.90;;;;;;5017545;28;20017;-69
2021/05/19 11:47:21;;;;;;;4.85;3.28;;;16.20;99.90;;;;;;5014046;28;20037;-69
2021/05/19 11:49:47;;;;;;;3.42;2.70;;;16.30;99.90;;;;;;5029012;28;20022;-69
2021/05/19 11:52:13;;;;;;;3.80;2.92;;;16.30;99.90;;;;;;5027180;28;20048;-85
2021/05/19 11:54:43;;;;;;;3.10;2.40;;;16.40;99.90;;;;;;5006586;28;20034;-84
2021/05/19 11:57:10;;;;;;;2.72;2.25;;;16.90;99.90;;;;;;5016511;28;20049;-85
2021/05/19 11:59:38;;;;;;;5.47;2.80;;;17.20;99.90;;;;;;5022715;28;20026;-84
2021/05/19 12:02:09;;;;;;;3.20;2.60;;;17.30;99.90;;;;;;5018616;28;20141;-85
2021/05/19 12:04:39;;;;;;;4.60;3.05;;;17.20;99.90;;;;;;5017458;28;20070;-84
2021/05/19 12:07:07;;;;;;;7.18;3.10;;;17.20;99.90;;;;;;5008206;28;20030;-84
2021/05/19 12:09:41;;;;;;;2.90;2.60;;;17.10;99.90;;;;;;5020314;28;20028;-85
2021/05/19 12:12:18;;;;;;;6.30;2.42;;;16.50;99.90;;;;;;5017831;28;20045;-86
2021/05/19 12:14:55;;;;;;;4.78;2.90;;;16.50;99.90;;;;;;5021202;28;20037;-86
2021/05/19 12:17:24;;;;;;;3.67;2.78;;;16.60;99.90;;;;;;5018068;28;20032;-86
2021/05/19 12:19:50;;;;;;;4.85;2.65;;;16.50;99.90;;;;;;5018067;28;20034;-78
2021/05/19 12:22:18;;;;;;;3.92;2.35;;;16.10;99.90;;;;;;5013216;28;20073;-86
2021/05/19 12:24:45;;;;;;;3.40;2.47;;;15.90;99.90;;;;;;5015037;28;20029;-86
2021/05/19 12:27:19;;;;;;;3.25;2.33;;;15.00;99.90;;;;;;5015622;28;20068;-85
2021/05/19 12:29:51;;;;;;;7.37;2.33;;;14.50;99.90;;;;;;5015055;28;20092;-86
2021/05/19 12:32:23;;;;;;;2.10;1.73;;;14.20;99.90;;;;;;5017315;28;20071;-86
2021/05/19 12:35:12;;;;;;;3.03;2.00;;;14.00;99.90;;;;;;5020506;28;20026;-86
2021/05/19 12:37:43;;;;;;;2.65;1.90;;;14.10;99.90;;;;;;5028631;28;20022;-81
2021/05/19 12:40:11;;;;;;;2.10;1.60;;;14.30;99.90;;;;;;5010003;28;20013;-81
2021/05/19 12:42:42;;;;;;;1.90;1.60;;;14.80;99.90;;;;;;5014665;28;20022;-81
2021/05/19 12:45:09;;;;;;;3.83;2.95;;;15.20;99.90;;;;;;5017079;28;20017;-84
2021/05/19 12:47:35;;;;;;;2.95;2.00;;;15.30;99.90;;;;;;5022965;28;20084;-84
2021/05/19 12:50:04;;;;;;;2.40;1.98;;;15.80;99.90;;;;;;5002990;28;20022;-79
2021/05/19 12:52:32;;;;;;;3.80;2.40;;;16.00;99.90;;;;;;5023328;28;20041;-78
2021/05/19 12:54:57;;;;;;;7.93;2.70;;;16.30;99.90;;;;;;5011885;28;20026;-79
2021/05/19 12:57:25;;;;;;;3.70;2.47;;;16.40;99.90;;;;;;5023666;28;20025;-79
2021/05/19 13:00:16;;;;;;;3.38;2.42;;;16.40;99.90;;;;;;5021011;28;20480;-79
2021/05/19 13:02:46;;;;;;;6.00;2.00;;;16.00;99.90;;;;;;5035677;28;20029;-78
2021/05/19 13:05:22;;;;;;;3.78;2.20;;;15.60;99.90;;;;;;5022393;28;20657;-85
2021/05/19 13:07:50;;;;;;;4.68;1.95;;;15.20;99.90;;;;;;5035369;28;20064;-80
2021/05/19 13:10:28;;;;;;;4.47;2.03;;;14.90;99.90;;;;;;5039534;28;20068;-80
2021/05/19 13:13:21;;;;;;;7.93;2.05;;;14.70;99.90;;;;;;5039723;28;20017;-80